createdAt,value
2023-05-11T00:00:44.397Z,2.27
2023-05-11T00:03:12.619Z,3.40
2023-05-11T00:05:40.803Z,3.23
2023-05-11T00:08:09.201Z,2.93
2023-05-11T00:10:37.122Z,3.57
2023-05-11T00:13:06.441Z,2.77
2023-05-11T00:15:34.390Z,3.00
2023-05-11T00:18:02.402Z,2.83
2023-05-11T00:20:30.328Z,2.20
2023-05-11T00:22:58.305Z,2.47
2023-05-11T00:25:26.277Z,2.80
2023-05-11T00:27:54.223Z,2.97
2023-05-11T00:30:23.649Z,2.43
2023-05-11T00:32:52.254Z,2.57
2023-05-11T00:35:20.267Z,2.37
2023-05-11T00:37:48.389Z,2.77
2023-05-11T00:40:16.563Z,2.13
2023-05-11T00:42:44.631Z,3.37
2023-05-11T00:45:12.574Z,2.93
2023-05-11T00:47:41.939Z,3.23
2023-05-11T00:50:10.544Z,2.90
2023-05-11T00:52:38.447Z,2.90
2023-05-11T00:55:07.524Z,2.33
2023-05-11T00:57:36.283Z,3.30
2023-05-11T01:00:04.364Z,2.30
2023-05-11T01:02:32.453Z,2.53
2023-05-11T01:05:01.878Z,2.40
2023-05-11T01:07:33.544Z,2.67
2023-05-11T01:10:04.216Z,2.10
2023-05-11T01:12:37.420Z,2.80
2023-05-11T01:15:08.588Z,2.33
2023-05-11T01:17:41.820Z,2.70
2023-05-11T01:20:13.972Z,2.67
2023-05-11T01:22:50.102Z,2.60
2023-05-11T01:25:29.188Z,2.70
2023-05-11T01:28:22.528Z,2.50
2023-05-11T01:30:52.540Z,2.77
2023-05-11T01:33:22.834Z,2.37
2023-05-11T01:35:53.573Z,2.90
2023-05-11T01:38:22.366Z,2.97
2023-05-11T01:40:53.285Z,2.40
2023-05-11T01:43:22.300Z,3.50
2023-05-11T01:45:51.944Z,2.40
2023-05-11T01:48:21.626Z,3.13
2023-05-11T01:50:49.552Z,2.63
2023-05-11T01:53:17.784Z,2.60
2023-05-11T01:55:46.273Z,2.97
2023-05-11T01:58:15.555Z,2.93
2023-05-11T02:00:44.099Z,2.77
2023-05-11T02:03:13.536Z,2.93
2023-05-11T02:05:41.468Z,2.40
2023-05-11T02:08:09.435Z,2.90
2023-05-11T02:10:37.378Z,2.80
2023-05-11T02:13:05.266Z,2.40
2023-05-11T02:15:33.266Z,2.40
2023-05-11T02:18:01.294Z,3.07
2023-05-11T02:20:31.056Z,2.50
2023-05-11T02:22:59.034Z,2.57
2023-05-11T02:25:26.972Z,3.10
2023-05-11T02:27:54.887Z,2.80
2023-05-11T02:30:22.846Z,2.53
2023-05-11T02:32:53.052Z,3.00
2023-05-11T02:35:25.417Z,3.10
2023-05-11T02:37:56.635Z,2.40
2023-05-11T02:40:28.503Z,2.40
2023-05-11T02:42:58.319Z,3.73
2023-05-11T02:45:26.420Z,3.63
2023-05-11T02:47:55.335Z,3.77
2023-05-11T02:50:24.304Z,3.60
2023-05-11T02:52:54.775Z,3.37
2023-05-11T02:55:22.677Z,3.43
2023-05-11T02:57:50.639Z,3.93
2023-05-11T03:00:18.832Z,3.67
2023-05-11T03:02:47.084Z,3.77
2023-05-11T03:05:15.115Z,3.47
2023-05-11T03:07:43.033Z,3.30
2023-05-11T03:10:12.690Z,3.37
2023-05-11T03:12:40.580Z,2.93
2023-05-11T03:15:12.030Z,3.63
2023-05-11T03:17:40.129Z,3.23
2023-05-11T03:20:09.348Z,3.10
2023-05-11T03:22:37.302Z,3.30
2023-05-11T03:25:05.600Z,2.63
2023-05-11T03:27:34.920Z,3.50
2023-05-11T03:30:02.928Z,3.50
2023-05-11T03:32:30.873Z,2.30
2023-05-11T03:34:58.844Z,2.20
2023-05-11T03:37:26.932Z,2.50
2023-05-11T03:39:56.552Z,2.90
2023-05-11T03:42:24.467Z,2.53
2023-05-11T03:44:55.988Z,2.40
2023-05-11T03:49:51.823Z,2.60
2023-05-11T03:52:19.931Z,2.60
2023-05-11T03:54:47.882Z,2.43
2023-05-11T03:57:15.988Z,2.30
2023-05-11T03:59:43.949Z,1.80
2023-05-11T04:02:13.294Z,1.63
2023-05-11T04:04:41.296Z,2.70
2023-05-11T04:07:09.216Z,2.17
2023-05-11T04:09:37.172Z,2.20
2023-05-11T04:12:05.542Z,1.80
2023-05-11T04:14:33.476Z,1.43
2023-05-11T04:17:01.455Z,1.87
2023-05-11T04:19:30.789Z,1.83
2023-05-11T04:21:58.747Z,1.87
2023-05-11T04:24:26.732Z,2.30
2023-05-11T04:26:57.270Z,1.63
2023-05-11T04:29:25.194Z,1.43
2023-05-11T04:31:53.262Z,1.70
2023-05-11T04:34:21.782Z,1.40
2023-05-11T04:36:51.082Z,1.43
2023-05-11T04:39:19.033Z,1.60
2023-05-11T04:41:47.104Z,1.40
2023-05-11T04:44:15.041Z,1.00
2023-05-11T04:46:43.036Z,1.40
2023-05-11T04:49:10.985Z,1.37
2023-05-11T04:51:39.370Z,1.00
2023-05-11T04:54:08.642Z,2.13
2023-05-11T04:56:40.514Z,1.17
2023-05-11T04:59:08.610Z,1.10
2023-05-11T05:01:36.638Z,0.97
2023-05-11T05:04:04.910Z,1.63
2023-05-11T05:06:33.803Z,1.30
2023-05-11T05:09:01.811Z,1.40
2023-05-11T05:11:31.130Z,1.40
2023-05-11T05:13:59.020Z,1.53
2023-05-11T05:16:27.000Z,1.03
2023-05-11T05:18:54.941Z,1.70
2023-05-11T05:21:22.891Z,1.60
2023-05-11T05:23:50.902Z,1.30
2023-05-11T05:26:18.845Z,1.57
2023-05-11T05:28:48.138Z,1.50
2023-05-11T05:31:16.142Z,1.70
2023-05-11T05:33:44.069Z,1.57
2023-05-11T05:36:12.012Z,1.20
2023-05-11T05:38:39.926Z,1.43
2023-05-11T05:41:07.961Z,1.23
2023-05-11T05:43:35.911Z,1.10
2023-05-11T05:46:06.387Z,1.27
2023-05-11T05:48:34.341Z,1.27
2023-05-11T05:51:02.284Z,1.20
2023-05-11T05:53:30.270Z,1.50
2023-05-11T05:55:58.192Z,1.30
2023-05-11T05:58:26.136Z,1.60
2023-05-11T06:00:54.099Z,1.10
2023-05-11T06:03:23.528Z,1.03
2023-05-11T06:05:51.503Z,0.90
2023-05-11T06:08:19.492Z,0.93
2023-05-11T06:10:47.399Z,1.17
2023-05-11T06:13:15.305Z,1.27
2023-05-11T06:15:43.604Z,1.47
2023-05-11T06:18:11.967Z,1.20
2023-05-11T06:20:41.269Z,1.17
2023-05-11T06:23:09.206Z,1.37
2023-05-11T06:25:37.241Z,0.90
2023-05-11T06:28:05.295Z,1.30
2023-05-11T06:30:33.218Z,1.20
2023-05-11T06:33:01.398Z,1.20
2023-05-11T06:35:30.329Z,1.10
2023-05-11T06:37:59.632Z,1.10
2023-05-11T06:40:27.691Z,1.20
2023-05-11T06:42:55.708Z,1.03
2023-05-11T06:45:23.798Z,1.23
2023-05-11T06:47:51.822Z,0.97
2023-05-11T06:50:21.317Z,1.13
2023-05-11T06:52:50.050Z,0.97
2023-05-11T06:55:19.464Z,1.33
2023-05-11T06:57:47.403Z,0.80
2023-05-11T07:00:16.517Z,1.13
2023-05-11T07:02:44.585Z,1.30
2023-05-11T07:05:12.981Z,1.00
2023-05-11T07:07:40.937Z,1.10
2023-05-11T07:10:10.053Z,0.83
2023-05-11T07:12:39.344Z,0.87
2023-05-11T07:15:08.322Z,1.30
2023-05-11T07:17:36.307Z,1.20
2023-05-11T07:20:04.390Z,0.83
2023-05-11T07:22:32.292Z,0.90
2023-05-11T07:25:01.516Z,1.03
2023-05-11T07:27:29.484Z,1.00
2023-05-11T07:29:58.801Z,1.10
2023-05-11T07:32:26.794Z,1.13
2023-05-11T07:34:54.760Z,1.10
2023-05-11T07:37:22.680Z,0.70
2023-05-11T07:39:50.705Z,0.83
2023-05-11T07:42:18.626Z,1.37
2023-05-11T07:44:46.615Z,0.80
2023-05-11T07:47:16.339Z,0.73
2023-05-11T07:49:44.556Z,1.10
2023-05-11T07:52:12.671Z,1.40
2023-05-11T07:54:40.942Z,1.00
2023-05-11T07:57:09.115Z,1.33
2023-05-11T07:59:37.283Z,1.00
2023-05-11T08:02:05.390Z,1.10
2023-05-11T08:04:35.062Z,0.80
2023-05-11T08:07:03.031Z,1.17
2023-05-11T08:09:30.951Z,1.00
2023-05-11T08:12:01.556Z,1.00
2023-05-11T08:14:29.505Z,1.00
2023-05-11T08:16:57.454Z,0.80
2023-05-11T08:19:25.417Z,0.90
2023-05-11T08:21:54.720Z,0.90
2023-05-11T08:24:22.636Z,1.10
2023-05-11T08:26:50.562Z,1.07
2023-05-11T08:29:18.516Z,0.73
2023-05-11T08:31:46.466Z,0.80
2023-05-11T08:34:19.722Z,1.33
2023-05-11T08:36:48.312Z,1.00
2023-05-11T08:39:28.539Z,0.90
2023-05-11T08:42:07.114Z,0.97
2023-05-11T08:44:37.726Z,1.00
2023-05-11T08:47:21.820Z,1.10
2023-05-11T08:49:51.798Z,1.00
2023-05-11T08:52:19.786Z,0.90
2023-05-11T08:54:49.191Z,1.00
2023-05-11T08:57:17.133Z,0.90
2023-05-11T08:59:45.948Z,0.90
2023-05-11T09:02:17.162Z,0.90
2023-05-11T09:04:48.079Z,0.87
2023-05-11T09:07:17.372Z,1.00
2023-05-11T09:09:45.440Z,0.93
2023-05-11T09:12:14.957Z,1.10
2023-05-11T09:14:43.119Z,0.97
2023-05-11T09:17:11.175Z,0.60
2023-05-11T09:19:39.337Z,0.97
2023-05-11T09:22:07.830Z,1.00
2023-05-11T09:24:35.791Z,0.90
2023-05-11T09:27:10.076Z,0.70
2023-05-11T09:29:39.524Z,1.17
2023-05-11T09:32:08.181Z,1.10
2023-05-11T09:34:36.139Z,0.90
2023-05-11T09:37:04.208Z,1.40
2023-05-11T09:42:13.775Z,1.20
2023-05-11T09:44:44.395Z,1.00
2023-05-11T09:47:13.794Z,1.20
2023-05-11T09:49:43.372Z,0.90
2023-05-11T09:52:12.269Z,1.03
2023-05-11T09:54:46.504Z,0.70
2023-05-11T09:57:24.817Z,1.20
2023-05-11T09:59:54.345Z,0.90
2023-05-11T10:02:23.404Z,1.00
2023-05-11T10:04:51.796Z,0.93
2023-05-11T10:07:29.833Z,1.00
2023-05-11T10:09:58.483Z,0.80
2023-05-11T10:12:27.411Z,1.00
2023-05-11T10:15:02.884Z,1.00
2023-05-11T10:17:31.484Z,1.20
2023-05-11T10:19:59.532Z,1.00
2023-05-11T10:22:28.187Z,0.87
2023-05-11T10:24:56.647Z,0.80
2023-05-11T10:27:24.762Z,0.80
2023-05-11T10:29:52.814Z,0.77
2023-05-11T10:32:22.684Z,0.70
2023-05-11T10:34:51.976Z,0.77
2023-05-11T10:37:21.271Z,0.73
2023-05-11T10:39:50.594Z,0.70
2023-05-11T10:42:36.308Z,0.63
2023-05-11T10:45:13.927Z,0.80
2023-05-11T10:48:08.759Z,0.70
2023-05-11T10:50:49.216Z,1.10
2023-05-11T10:53:26.526Z,0.80
2023-05-11T10:56:06.249Z,0.97
2023-05-11T10:58:42.167Z,0.90
2023-05-11T11:01:33.065Z,1.00
2023-05-11T11:04:05.554Z,1.00
2023-05-11T11:06:33.533Z,0.83
2023-05-11T11:09:02.012Z,0.80
2023-05-11T11:11:33.930Z,0.77
2023-05-11T11:14:03.777Z,0.70
2023-05-11T11:16:31.813Z,1.30
2023-05-11T11:19:38.785Z,1.20
2023-05-11T11:22:06.881Z,1.00
2023-05-11T11:24:44.258Z,1.10
2023-05-11T11:27:12.239Z,1.00
2023-05-11T11:29:40.410Z,0.70
2023-05-11T11:32:29.559Z,0.90
2023-05-11T11:34:59.044Z,0.90
2023-05-11T11:37:26.996Z,1.10
2023-05-11T11:40:13.669Z,0.93
2023-05-11T11:42:44.468Z,1.37
2023-05-11T11:45:46.748Z,1.03
2023-05-11T11:48:15.837Z,0.90
2023-05-11T11:50:47.037Z,0.73
2023-05-11T11:53:30.533Z,1.00
2023-05-11T11:55:58.635Z,1.30
2023-05-11T11:59:00.474Z,1.10
2023-05-11T12:01:31.009Z,1.00
2023-05-11T12:04:31.697Z,1.10
2023-05-11T12:07:01.382Z,0.80
2023-05-11T12:09:29.450Z,0.90
2023-05-11T12:11:57.534Z,1.40
2023-05-11T12:14:25.527Z,0.90
2023-05-11T12:17:04.332Z,1.00
2023-05-11T12:19:32.331Z,1.00
2023-05-11T12:22:01.699Z,1.33
2023-05-11T12:24:29.657Z,0.90
2023-05-11T12:26:58.771Z,1.10
2023-05-11T12:29:27.126Z,1.27
2023-05-11T12:31:55.945Z,1.30
2023-05-11T12:34:23.973Z,1.07
2023-05-11T12:36:53.187Z,0.83
2023-05-11T12:39:23.186Z,1.07
2023-05-11T12:41:51.861Z,1.10
2023-05-11T12:44:19.910Z,1.17
2023-05-11T12:46:48.133Z,1.60
2023-05-11T12:49:24.787Z,0.97
2023-05-11T12:52:00.562Z,0.90
2023-05-11T12:54:37.629Z,1.13
2023-05-11T12:57:06.351Z,1.00
2023-05-11T12:59:37.404Z,1.30
2023-05-11T13:02:12.778Z,1.00
2023-05-11T13:04:40.949Z,0.80
2023-05-11T13:07:08.890Z,0.70
2023-05-11T13:09:38.241Z,1.07
2023-05-11T13:12:15.916Z,0.90
2023-05-11T13:14:44.098Z,0.90
2023-05-11T13:17:12.056Z,1.00
2023-05-11T13:19:40.848Z,0.90
2023-05-11T13:22:09.182Z,0.83
2023-05-11T13:24:38.496Z,1.07
2023-05-11T13:27:06.979Z,1.10
2023-05-11T13:29:36.726Z,1.20
2023-05-11T13:32:05.074Z,0.70
2023-05-11T13:34:33.043Z,0.70
2023-05-11T13:37:01.061Z,2.10
2023-05-11T13:39:28.947Z,1.30
2023-05-11T13:41:58.285Z,0.90
2023-05-11T13:44:26.682Z,0.90
2023-05-11T13:46:55.389Z,0.80
2023-05-11T13:49:23.320Z,1.00
2023-05-11T13:51:52.556Z,1.00
2023-05-11T13:54:21.365Z,0.93
2023-05-11T13:56:49.319Z,1.03
2023-05-11T13:59:18.646Z,0.80
2023-05-11T14:01:46.712Z,1.10
2023-05-11T14:04:14.724Z,1.27
2023-05-11T14:06:43.134Z,1.03
2023-05-11T14:09:11.114Z,1.00
2023-05-11T14:11:39.681Z,1.10
2023-05-11T14:14:07.817Z,0.93
2023-05-11T14:16:37.189Z,1.23
2023-05-11T14:19:05.246Z,0.90
2023-05-11T14:21:33.568Z,1.10
2023-05-11T14:24:11.345Z,0.93
2023-05-11T14:26:39.827Z,1.10
2023-05-11T14:29:07.731Z,1.07
2023-05-11T14:31:37.829Z,1.33
2023-05-11T14:34:06.075Z,1.13
2023-05-11T14:36:34.067Z,1.23
2023-05-11T14:39:02.796Z,1.00
2023-05-11T14:41:31.051Z,0.90
2023-05-11T14:43:59.000Z,0.90
2023-05-11T14:46:27.101Z,0.90
2023-05-11T14:48:56.503Z,1.43
2023-05-11T14:51:24.446Z,1.13
2023-05-11T14:53:52.459Z,1.10
2023-05-11T14:56:20.430Z,1.17
2023-05-11T14:58:48.335Z,0.70
2023-05-11T15:01:16.752Z,0.97
2023-05-11T15:03:45.024Z,1.40
2023-05-11T15:06:20.976Z,1.10
2023-05-11T15:08:49.074Z,1.20
2023-05-11T15:11:17.053Z,1.00
2023-05-11T15:13:47.416Z,1.20
2023-05-11T15:16:15.642Z,1.10
2023-05-11T15:18:43.713Z,1.30
2023-05-11T15:21:11.700Z,1.40
2023-05-11T15:23:41.104Z,1.40
2023-05-11T15:26:09.066Z,1.10
2023-05-11T15:28:37.040Z,1.47
2023-05-11T15:31:05.017Z,1.27
2023-05-11T15:33:33.455Z,1.13
2023-05-11T15:36:01.463Z,1.50
2023-05-11T15:38:29.418Z,1.20
2023-05-11T15:40:58.847Z,1.27
2023-05-11T15:43:27.046Z,1.20
2023-05-11T15:45:55.416Z,1.23
2023-05-11T15:48:23.394Z,1.00
2023-05-11T15:50:51.346Z,1.23
2023-05-11T15:53:19.279Z,1.30
2023-05-11T15:55:50.793Z,1.20
2023-05-11T15:58:20.176Z,1.47
2023-05-11T16:00:48.348Z,1.53
2023-05-11T16:03:16.589Z,1.13
2023-05-11T16:05:45.554Z,1.50
2023-05-11T16:08:13.965Z,1.30
2023-05-11T16:10:41.925Z,1.07
2023-05-11T16:13:10.035Z,1.10
2023-05-11T16:15:39.342Z,0.90
2023-05-11T16:18:07.303Z,1.40
2023-05-11T16:20:35.281Z,1.07
2023-05-11T16:23:04.224Z,0.90
2023-05-11T16:25:32.216Z,1.27
2023-05-11T16:28:00.157Z,1.20
2023-05-11T16:30:28.357Z,1.20
2023-05-11T16:32:57.829Z,0.93
2023-05-11T16:35:25.848Z,1.10
2023-05-11T16:37:55.055Z,1.20
2023-05-11T16:40:23.092Z,1.10
2023-05-11T16:42:50.999Z,1.00
2023-05-11T16:45:19.009Z,1.63
2023-05-11T16:47:47.045Z,1.20
2023-05-11T16:50:16.705Z,1.17
2023-05-11T16:52:45.177Z,0.93
2023-05-11T16:55:13.133Z,1.10
2023-05-11T16:57:41.036Z,1.00
2023-05-11T17:00:09.919Z,1.57
2023-05-11T17:02:37.986Z,1.60
2023-05-11T17:05:06.815Z,1.10
2023-05-11T17:07:36.141Z,0.80
2023-05-11T17:10:04.133Z,1.10
2023-05-11T17:12:32.420Z,1.53
2023-05-11T17:15:00.704Z,1.47
2023-05-11T17:17:28.790Z,0.90
2023-05-11T17:19:56.737Z,1.20
2023-05-11T17:22:25.938Z,1.60
2023-05-11T17:24:55.294Z,1.30
2023-05-11T17:27:23.261Z,1.07
2023-05-11T17:29:51.325Z,1.13
2023-05-11T17:32:19.594Z,1.10
2023-05-11T17:34:47.945Z,1.30
2023-05-11T17:37:30.551Z,1.00
2023-05-11T17:40:01.143Z,1.30
2023-05-11T17:42:29.403Z,1.20
2023-05-11T17:44:57.332Z,1.40
2023-05-11T17:47:26.164Z,1.57
2023-05-11T17:49:54.289Z,0.93
2023-05-11T17:52:22.205Z,1.10
2023-05-11T17:54:50.176Z,1.30
2023-05-11T17:57:19.496Z,0.90
2023-05-11T17:59:47.842Z,1.37
2023-05-11T18:02:16.624Z,1.30
2023-05-11T18:04:44.626Z,1.47
2023-05-11T18:07:12.540Z,1.33
2023-05-11T18:09:40.569Z,1.30
2023-05-11T18:12:09.634Z,1.47
2023-05-11T18:14:38.933Z,1.20
2023-05-11T18:17:06.876Z,1.30
2023-05-11T18:19:34.780Z,1.30
2023-05-11T18:22:02.712Z,1.40
2023-05-11T18:24:30.693Z,1.00
2023-05-11T18:26:58.648Z,1.40
2023-05-11T18:29:26.964Z,1.60
2023-05-11T18:31:56.386Z,0.83
2023-05-11T18:34:24.497Z,1.17
2023-05-11T18:36:52.407Z,1.13
2023-05-11T18:39:20.444Z,1.10
2023-05-11T18:41:48.360Z,0.87
2023-05-11T18:44:16.443Z,1.30
2023-05-11T18:46:44.507Z,1.20
2023-05-11T18:49:14.091Z,1.47
2023-05-11T18:51:42.015Z,1.70
2023-05-11T18:54:10.125Z,1.70
2023-05-11T18:56:38.080Z,1.13
2023-05-11T18:59:06.064Z,1.77
2023-05-11T19:01:46.726Z,1.27
2023-05-11T19:04:19.703Z,1.70
2023-05-11T19:06:47.993Z,2.77
2023-05-11T19:09:16.024Z,1.67
2023-05-11T19:11:44.290Z,1.37
2023-05-11T19:14:14.456Z,1.20
2023-05-11T19:16:43.020Z,1.40
2023-05-11T19:19:11.447Z,1.60
2023-05-11T19:21:42.526Z,1.30
2023-05-11T19:24:10.762Z,1.40
2023-05-11T19:26:39.285Z,0.97
2023-05-11T19:29:08.193Z,1.33
2023-05-11T19:31:36.247Z,1.37
2023-05-11T19:34:04.219Z,1.40
2023-05-11T19:36:32.121Z,1.23
2023-05-11T19:39:01.405Z,1.33
2023-05-11T19:41:29.295Z,1.40
2023-05-11T19:43:57.366Z,1.40
2023-05-11T19:46:25.322Z,1.87
2023-05-11T19:48:53.365Z,1.30
2023-05-11T19:51:22.315Z,1.80
2023-05-11T19:53:50.260Z,1.43
2023-05-11T19:56:19.577Z,2.80
2023-05-11T19:58:47.540Z,1.43
2023-05-11T20:01:15.566Z,1.20
2023-05-11T20:03:43.753Z,1.33
2023-05-11T20:06:11.753Z,1.43
2023-05-11T20:08:39.727Z,1.60
2023-05-11T20:11:07.651Z,1.57
2023-05-11T20:13:36.951Z,1.40
2023-05-11T20:16:05.022Z,1.73
2023-05-11T20:18:33.338Z,1.40
2023-05-11T20:21:01.454Z,1.50
2023-05-11T20:23:29.371Z,1.40
2023-05-11T20:25:57.334Z,1.60
2023-05-11T20:28:27.307Z,1.40
2023-05-11T20:30:57.224Z,1.80
2023-05-11T20:35:55.972Z,1.27
2023-05-11T20:38:23.958Z,1.63
2023-05-11T20:40:56.368Z,1.53
2023-05-11T20:43:25.627Z,2.07
2023-05-11T20:45:53.966Z,1.97
2023-05-11T20:48:32.372Z,2.30
2023-05-11T20:51:06.812Z,2.00
2023-05-11T20:53:34.719Z,1.50
2023-05-11T20:56:03.282Z,1.40
2023-05-11T20:58:31.472Z,1.47
2023-05-11T21:00:59.593Z,2.13
2023-05-11T21:03:28.948Z,1.83
2023-05-11T21:05:58.142Z,1.57
2023-05-11T21:08:26.109Z,1.27
2023-05-11T21:10:54.217Z,1.37
2023-05-11T21:13:22.166Z,1.77
2023-05-11T21:15:50.162Z,1.03
2023-05-11T21:18:18.252Z,1.20
2023-05-11T21:20:47.724Z,1.50
2023-05-11T21:23:15.699Z,1.23
2023-05-11T21:25:43.669Z,1.43
2023-05-11T21:28:11.630Z,1.47
2023-05-11T21:30:39.572Z,1.97
2023-05-11T21:33:07.571Z,1.40
2023-05-11T21:35:35.569Z,1.37
2023-05-11T21:38:04.880Z,1.60
2023-05-11T21:40:32.801Z,1.60
2023-05-11T21:43:00.747Z,1.13
2023-05-11T21:45:28.690Z,1.60
2023-05-11T21:47:58.664Z,1.23
2023-05-11T21:50:26.687Z,1.10
2023-05-11T21:52:54.667Z,1.53
2023-05-11T21:55:24.314Z,1.47
2023-05-11T21:57:52.824Z,1.40
2023-05-11T22:00:22.684Z,1.70
2023-05-11T22:02:50.805Z,1.60
2023-05-11T22:05:18.852Z,1.20
2023-05-11T22:07:47.038Z,1.10
2023-05-11T22:10:15.009Z,1.20
2023-05-11T22:12:44.380Z,1.27
2023-05-11T22:15:13.192Z,1.40
2023-05-11T22:17:41.124Z,1.57
2023-05-11T22:20:11.010Z,1.60
2023-05-11T22:22:38.988Z,1.57
2023-05-11T22:25:07.847Z,0.93
2023-05-11T22:27:36.094Z,2.10
2023-05-11T22:30:06.207Z,1.47
2023-05-11T22:32:34.151Z,1.50
2023-05-11T22:35:02.452Z,1.63
2023-05-11T22:37:30.425Z,1.30
2023-05-11T22:39:58.340Z,1.03
2023-05-11T22:42:26.331Z,1.13
2023-05-11T22:44:54.440Z,1.13
2023-05-11T22:47:23.706Z,2.10
2023-05-11T22:49:52.023Z,1.20
2023-05-11T22:52:19.933Z,1.43
2023-05-11T22:54:47.835Z,1.70
2023-05-11T22:57:17.254Z,1.10
2023-05-11T22:59:46.776Z,1.30
2023-05-11T23:02:14.896Z,1.87
2023-05-11T23:04:44.471Z,1.70
2023-05-11T23:07:12.913Z,1.30
2023-05-11T23:09:40.982Z,1.20
2023-05-11T23:12:09.582Z,1.47
2023-05-11T23:14:37.524Z,1.20
2023-05-11T23:17:05.490Z,1.33
2023-05-11T23:19:33.779Z,1.30
2023-05-11T23:22:03.134Z,1.00
2023-05-11T23:24:31.152Z,1.17
2023-05-11T23:26:59.087Z,1.57
2023-05-11T23:29:28.016Z,1.60
2023-05-11T23:31:56.016Z,1.73
2023-05-11T23:34:23.920Z,1.53
2023-05-11T23:36:51.877Z,1.57
2023-05-11T23:39:21.502Z,1.63
2023-05-11T23:41:49.386Z,1.80
2023-05-11T23:44:17.821Z,1.30
2023-05-11T23:46:45.857Z,1.40
2023-05-11T23:49:13.786Z,1.30
2023-05-11T23:51:41.743Z,1.17
2023-05-11T23:54:09.640Z,1.43
2023-05-11T23:56:38.909Z,1.30
2023-05-11T23:59:06.835Z,1.33
